createdAt,value
2022-12-15T00:00:47.561Z,-5.39
2022-12-15T00:03:10.279Z,-5.36
2022-12-15T00:05:32.539Z,-5.36
2022-12-15T00:07:54.401Z,-5.45
2022-12-15T00:10:23.157Z,-5.46
2022-12-15T00:12:47.455Z,-5.49
2022-12-15T00:15:13.817Z,-5.56
2022-12-15T00:17:53.173Z,-5.44
2022-12-15T00:20:22.822Z,-5.43
2022-12-15T00:22:44.112Z,-5.48
2022-12-15T00:25:06.385Z,-5.53
2022-12-15T00:27:34.831Z,-5.53
2022-12-15T00:29:55.450Z,-5.56
2022-12-15T00:32:17.159Z,-5.55
2022-12-15T00:34:50.673Z,-5.53
2022-12-15T00:37:12.259Z,-5.57
2022-12-15T00:39:18.247Z,-5.54
2022-12-15T00:41:29.326Z,-5.50
2022-12-15T00:43:36.386Z,-5.51
2022-12-15T00:45:57.347Z,-5.49
2022-12-15T00:48:06.419Z,-5.54
2022-12-15T00:50:27.820Z,-5.53
2022-12-15T00:52:51.354Z,-5.47
2022-12-15T00:55:15.163Z,-5.46
2022-12-15T00:57:47.838Z,-5.47
2022-12-15T01:00:16.951Z,-5.47
2022-12-15T01:02:38.519Z,-5.52
2022-12-15T01:05:03.263Z,-5.54
2022-12-15T01:07:24.618Z,-5.53
2022-12-15T01:09:45.200Z,-5.58
2022-12-15T01:12:38.699Z,-5.53
2022-12-15T01:15:15.138Z,-5.62
2022-12-15T01:17:46.645Z,-5.57
2022-12-15T01:20:10.071Z,-5.55
2022-12-15T01:22:12.945Z,-5.54
2022-12-15T01:24:15.817Z,-5.56
2022-12-15T01:26:18.693Z,-5.53
2022-12-15T01:28:42.460Z,-5.51
2022-12-15T01:30:50.897Z,-5.57
2022-12-15T01:32:59.590Z,-5.55
2022-12-15T01:35:01.500Z,-5.53
2022-12-15T01:37:03.409Z,-5.55
2022-12-15T01:39:07.402Z,-5.53
2022-12-15T01:41:12.965Z,-5.56
2022-12-15T01:43:24.717Z,-5.55
2022-12-15T01:45:31.204Z,-5.52
2022-12-15T01:47:50.165Z,-5.48
2022-12-15T01:50:03.063Z,-5.49
2022-12-15T01:52:31.665Z,-5.50
2022-12-15T01:54:50.270Z,-5.47
2022-12-15T01:57:03.267Z,-5.49
2022-12-15T01:59:20.659Z,-5.50
2022-12-15T02:01:38.615Z,-5.52
2022-12-15T02:03:44.327Z,-5.53
2022-12-15T02:05:56.366Z,-5.48
2022-12-15T02:08:05.244Z,-5.47
2022-12-15T02:10:11.383Z,-5.52
2022-12-15T02:12:39.773Z,-5.55
2022-12-15T02:14:58.643Z,-5.57
2022-12-15T02:17:30.872Z,-5.54
2022-12-15T02:20:11.183Z,-5.48
2022-12-15T02:22:54.774Z,-5.43
2022-12-15T02:25:20.593Z,-5.40
2022-12-15T02:27:53.618Z,-5.42
2022-12-15T02:30:17.257Z,-5.47
2022-12-15T02:32:47.924Z,-5.45
2022-12-15T02:35:01.622Z,-5.48
2022-12-15T02:37:14.856Z,-5.43
2022-12-15T02:39:18.919Z,-5.39
2022-12-15T02:41:46.412Z,-5.37
2022-12-15T02:43:48.479Z,-5.33
2022-12-15T02:46:19.707Z,-5.33
2022-12-15T02:48:29.336Z,-5.31
2022-12-15T02:51:00.794Z,-5.35
2022-12-15T02:53:31.755Z,-5.29
2022-12-15T02:55:50.233Z,-5.35
2022-12-15T02:58:05.429Z,-5.35
2022-12-15T03:00:11.415Z,-5.28
2022-12-15T03:02:25.257Z,-5.26
2022-12-15T03:04:28.090Z,-5.25
2022-12-15T03:06:40.117Z,-5.29
2022-12-15T03:08:51.327Z,-5.29
2022-12-15T03:10:54.831Z,-5.33
2022-12-15T03:13:03.631Z,-5.39
2022-12-15T03:15:08.333Z,-5.35
2022-12-15T03:17:15.233Z,-5.38
2022-12-15T03:19:39.935Z,-5.44
2022-12-15T03:21:43.893Z,-5.40
2022-12-15T03:23:54.843Z,-5.42
2022-12-15T03:25:59.832Z,-5.43
2022-12-15T03:28:13.600Z,-5.44
2022-12-15T03:30:17.691Z,-5.45
2022-12-15T03:32:24.733Z,-5.47
2022-12-15T03:34:35.610Z,-5.48
2022-12-15T03:36:44.164Z,-5.50
2022-12-15T03:38:51.876Z,-5.49
2022-12-15T03:40:53.819Z,-5.51
2022-12-15T03:42:58.902Z,-5.48
2022-12-15T03:45:31.424Z,-5.53
2022-12-15T03:47:45.425Z,-5.57
2022-12-15T03:49:47.297Z,-5.59
2022-12-15T03:51:55.293Z,-5.55
2022-12-15T03:53:59.229Z,-5.55
2022-12-15T03:56:07.664Z,-5.55
2022-12-15T03:58:12.674Z,-5.55
2022-12-15T04:00:25.917Z,-5.53
2022-12-15T04:02:34.389Z,-5.53
2022-12-15T04:04:44.379Z,-5.56
2022-12-15T04:06:51.382Z,-5.57
2022-12-15T04:09:09.682Z,-5.53
2022-12-15T04:11:11.628Z,-5.51
2022-12-15T04:13:14.545Z,-5.47
2022-12-15T04:15:29.598Z,-5.46
2022-12-15T04:17:38.035Z,-5.49
2022-12-15T04:20:09.348Z,-5.47
2022-12-15T04:22:18.121Z,-5.47
2022-12-15T04:24:40.659Z,-5.47
2022-12-15T04:27:04.144Z,-5.46
2022-12-15T04:29:26.663Z,-5.51
2022-12-15T04:31:52.058Z,-5.51
2022-12-15T04:34:19.208Z,-5.49
2022-12-15T04:36:40.757Z,-5.41
2022-12-15T04:39:01.379Z,-5.41
2022-12-15T04:41:24.078Z,-5.40
2022-12-15T04:44:15.904Z,-5.40
2022-12-15T04:46:36.449Z,-5.44
2022-12-15T04:48:58.158Z,-5.44
2022-12-15T04:51:25.110Z,-5.44
2022-12-15T04:53:45.509Z,-5.42
2022-12-15T04:56:18.893Z,-5.45
2022-12-15T04:58:44.546Z,-5.51
2022-12-15T05:01:30.555Z,-5.48
2022-12-15T05:04:00.725Z,-5.48
2022-12-15T05:06:23.523Z,-5.52
2022-12-15T05:08:51.108Z,-5.54
2022-12-15T05:11:17.876Z,-5.54
2022-12-15T05:13:53.462Z,-5.55
2022-12-15T05:16:13.750Z,-5.57
2022-12-15T05:18:42.148Z,-5.56
2022-12-15T05:21:02.283Z,-5.55
2022-12-15T05:23:30.016Z,-5.55
2022-12-15T05:25:57.755Z,-5.57
2022-12-15T05:28:30.197Z,-5.55
2022-12-15T05:31:12.454Z,-5.59
2022-12-15T05:33:14.181Z,-5.55
2022-12-15T05:35:43.991Z,-5.55
2022-12-15T05:38:10.639Z,-5.53
2022-12-15T05:40:45.984Z,-5.53
2022-12-15T05:43:01.905Z,-5.52
2022-12-15T05:45:18.138Z,-5.48
2022-12-15T05:47:32.020Z,-5.48
2022-12-15T05:49:35.963Z,-5.47
2022-12-15T05:51:59.801Z,-5.48
2022-12-15T05:54:19.969Z,-5.47
2022-12-15T05:56:38.193Z,-5.46
2022-12-15T05:58:58.870Z,-5.46
2022-12-15T06:01:07.860Z,-5.45
2022-12-15T06:03:43.974Z,-5.44
2022-12-15T06:05:56.446Z,-5.44
2022-12-15T06:08:15.157Z,-5.41
2022-12-15T06:10:23.943Z,-5.42
2022-12-15T06:12:50.455Z,-5.39
2022-12-15T06:15:39.914Z,-5.35
2022-12-15T06:17:49.510Z,-5.38
2022-12-15T06:19:55.830Z,-5.35
2022-12-15T06:25:19.675Z,-5.39
2022-12-15T06:27:37.982Z,-5.37
2022-12-15T06:29:40.970Z,-5.39
2022-12-15T06:32:12.000Z,-5.39
2022-12-15T06:34:18.910Z,-5.36
2022-12-15T06:36:25.061Z,-5.32
2022-12-15T06:38:29.352Z,-5.37
2022-12-15T06:40:41.850Z,-5.34
2022-12-15T06:42:54.803Z,-5.34
2022-12-15T06:44:58.687Z,-5.31
2022-12-15T06:47:07.702Z,-5.28
2022-12-15T06:49:16.942Z,-5.32
2022-12-15T06:51:28.354Z,-5.31
2022-12-15T06:53:52.470Z,-5.31
2022-12-15T06:56:28.825Z,-5.31
2022-12-15T06:58:58.391Z,-5.30
2022-12-15T07:01:15.716Z,-5.28
2022-12-15T07:03:26.352Z,-5.30
2022-12-15T07:05:29.412Z,-5.28
2022-12-15T07:07:41.235Z,-5.23
2022-12-15T07:10:15.060Z,-5.23
2022-12-15T07:12:26.005Z,-5.23
2022-12-15T07:14:28.038Z,-5.22
2022-12-15T07:17:11.164Z,-5.21
2022-12-15T07:19:23.262Z,-5.23
2022-12-15T07:24:48.930Z,-5.20
2022-12-15T07:27:35.764Z,-5.19
2022-12-15T07:30:19.065Z,-5.17
2022-12-15T07:32:38.481Z,-5.08
2022-12-15T07:34:40.713Z,-4.92
2022-12-15T07:36:54.934Z,-4.84
2022-12-15T07:39:01.534Z,-4.79
2022-12-15T07:41:09.741Z,-4.76
2022-12-15T07:43:13.732Z,-4.72
2022-12-15T07:45:19.673Z,-4.69
2022-12-15T07:47:26.198Z,-4.69
2022-12-15T07:50:03.077Z,-4.68
2022-12-15T07:52:05.169Z,-4.55
2022-12-15T07:54:17.975Z,-4.64
2022-12-15T07:56:20.682Z,-4.56
2022-12-15T07:58:34.926Z,-4.61
2022-12-15T08:00:48.606Z,-4.60
2022-12-15T08:02:56.052Z,-4.61
2022-12-15T08:05:19.924Z,-4.57
2022-12-15T08:07:33.231Z,-4.52
2022-12-15T08:10:13.815Z,-4.58
2022-12-15T08:15:59.397Z,-4.60
2022-12-15T08:18:12.996Z,-4.55
2022-12-15T08:21:11.079Z,-4.52
2022-12-15T08:23:22.107Z,-4.44
2022-12-15T08:26:07.984Z,-4.34
2022-12-15T08:31:34.082Z,-4.43
2022-12-15T08:34:01.344Z,-4.34
2022-12-15T08:36:20.511Z,-4.40
2022-12-15T08:39:06.841Z,-4.34
2022-12-15T08:44:42.787Z,-4.47
2022-12-15T08:47:33.102Z,-4.42
2022-12-15T08:49:46.289Z,-4.41
2022-12-15T08:52:07.253Z,-4.38
2022-12-15T08:54:53.760Z,-4.40
2022-12-15T08:57:14.664Z,-4.33
2022-12-15T08:59:25.640Z,-4.28
2022-12-15T09:01:32.625Z,-4.28
2022-12-15T09:07:15.937Z,-4.28
2022-12-15T09:09:19.294Z,-4.31
2022-12-15T09:11:23.236Z,-4.23
2022-12-15T09:13:36.218Z,-4.23
2022-12-15T09:16:08.352Z,-4.18
2022-12-15T09:18:13.450Z,-4.18
2022-12-15T09:20:17.993Z,-4.17
2022-12-15T09:22:25.364Z,-4.06
2022-12-15T09:24:35.309Z,-4.05
2022-12-15T09:26:45.530Z,-4.04
2022-12-15T09:28:55.102Z,-4.05
2022-12-15T09:31:07.743Z,-4.03
2022-12-15T09:33:17.572Z,-4.04
2022-12-15T09:35:20.976Z,-4.06
2022-12-15T09:37:34.843Z,-4.11
2022-12-15T09:39:38.160Z,-4.10
2022-12-15T09:41:41.968Z,-4.10
2022-12-15T09:44:22.232Z,-4.03
2022-12-15T09:49:57.074Z,-4.16
2022-12-15T09:52:13.717Z,-4.05
2022-12-15T09:54:15.796Z,-4.10
2022-12-15T09:56:27.411Z,-4.11
2022-12-15T09:58:47.529Z,-4.11
2022-12-15T10:03:54.750Z,-4.09
2022-12-15T10:06:24.823Z,-4.06
2022-12-15T10:08:47.222Z,-4.13
2022-12-15T10:11:04.225Z,-4.10
2022-12-15T10:13:26.577Z,-4.07
2022-12-15T10:15:41.397Z,-4.01
2022-12-15T10:18:11.806Z,-4.08
2022-12-15T10:20:26.743Z,-4.12
2022-12-15T10:22:38.049Z,-4.93
2022-12-15T10:27:49.628Z,-5.27
2022-12-15T10:30:15.901Z,-5.37
2022-12-15T10:32:44.477Z,-5.39
2022-12-15T10:34:53.027Z,-5.40
2022-12-15T10:37:03.449Z,-5.37
2022-12-15T10:39:05.594Z,-5.33
2022-12-15T10:41:19.970Z,-5.29
2022-12-15T10:43:40.747Z,-4.88
2022-12-15T10:46:04.072Z,-4.78
2022-12-15T10:48:18.322Z,-4.70
2022-12-15T10:50:28.935Z,-4.62
2022-12-15T10:52:52.857Z,-4.52
2022-12-15T10:55:39.161Z,-4.48
2022-12-15T10:57:59.158Z,-4.48
2022-12-15T11:00:23.014Z,-4.50
2022-12-15T11:02:34.416Z,-4.43
2022-12-15T11:05:16.441Z,-4.52
2022-12-15T11:07:48.790Z,-4.53
2022-12-15T11:10:09.400Z,-4.54
2022-12-15T11:12:42.431Z,-4.49
2022-12-15T11:14:56.477Z,-4.55
2022-12-15T11:17:07.394Z,-4.59
2022-12-15T11:19:20.928Z,-4.46
2022-12-15T11:25:18.966Z,-4.60
2022-12-15T11:27:49.748Z,-4.51
2022-12-15T11:30:03.180Z,-4.50
2022-12-15T11:32:07.447Z,-4.48
2022-12-15T11:34:42.018Z,-4.50
2022-12-15T11:37:29.363Z,-4.52
2022-12-15T11:39:45.667Z,-4.44
2022-12-15T11:42:04.778Z,-4.46
2022-12-15T11:44:30.880Z,-4.37
2022-12-15T11:46:55.661Z,-4.41
2022-12-15T11:49:41.514Z,-4.47
2022-12-15T11:52:27.176Z,-4.43
2022-12-15T11:54:50.952Z,-4.43
2022-12-15T12:00:23.895Z,-4.43
2022-12-15T12:03:04.348Z,-4.30
2022-12-15T12:05:25.059Z,-4.28
2022-12-15T12:08:15.349Z,-4.27
2022-12-15T12:10:51.298Z,-4.22
2022-12-15T12:13:22.830Z,-4.25
2022-12-15T12:15:47.705Z,-4.26
2022-12-15T12:18:06.616Z,-4.18
2022-12-15T12:20:15.049Z,-4.15
2022-12-15T12:22:39.904Z,-4.19
2022-12-15T12:25:09.622Z,-4.19
2022-12-15T12:27:28.311Z,-4.18
2022-12-15T12:29:36.170Z,-4.14
2022-12-15T12:32:00.570Z,-4.16
2022-12-15T12:35:30.317Z,-4.16
2022-12-15T12:37:43.494Z,-4.19
2022-12-15T12:39:45.790Z,-4.09
2022-12-15T12:45:41.036Z,-4.17
2022-12-15T12:48:02.029Z,-4.26
2022-12-15T12:50:33.822Z,-4.25
2022-12-15T12:52:38.395Z,-4.19
2022-12-15T12:55:01.017Z,-4.27
2022-12-15T12:57:10.795Z,-4.30
2022-12-15T12:59:31.265Z,-4.39
2022-12-15T13:01:35.615Z,-4.18
2022-12-15T13:03:42.441Z,-4.41
2022-12-15T13:05:50.413Z,-4.32
2022-12-15T13:08:29.861Z,-4.39
2022-12-15T13:13:56.507Z,-4.42
2022-12-15T13:16:40.431Z,-4.53
2022-12-15T13:19:11.927Z,-4.48
2022-12-15T13:21:44.005Z,-4.62
2022-12-15T13:26:48.809Z,-4.74
2022-12-15T13:29:37.776Z,-4.78
2022-12-15T13:31:54.226Z,-4.73
2022-12-15T13:34:01.744Z,-4.85
2022-12-15T13:36:38.863Z,-4.84
2022-12-15T13:39:23.759Z,-4.81
2022-12-15T13:42:31.479Z,-4.85
2022-12-15T13:44:52.054Z,-4.85
2022-12-15T13:47:30.210Z,-5.00
2022-12-15T13:49:42.064Z,-4.94
2022-12-15T13:52:44.263Z,-5.01
2022-12-15T13:54:56.432Z,-5.01
2022-12-15T13:57:20.702Z,-5.09
2022-12-15T14:00:19.424Z,-5.19
2022-12-15T14:02:32.709Z,-5.25
2022-12-15T14:04:35.756Z,-5.30
2022-12-15T14:06:47.004Z,-5.28
2022-12-15T14:09:17.251Z,-5.27
2022-12-15T14:11:51.391Z,-5.24
2022-12-15T14:13:52.369Z,-5.23
2022-12-15T14:16:24.888Z,-5.25
2022-12-15T14:18:37.112Z,-5.28
2022-12-15T14:21:40.519Z,-5.24
2022-12-15T14:24:37.471Z,-5.22
2022-12-15T14:26:32.079Z,-5.21
2022-12-15T14:29:15.698Z,-5.26
2022-12-15T14:31:30.289Z,-5.22
2022-12-15T14:34:12.346Z,-5.24
2022-12-15T14:42:23.608Z,-5.25
2022-12-15T14:44:37.847Z,-5.16
2022-12-15T14:46:49.773Z,-5.15
2022-12-15T14:49:29.232Z,-5.20
2022-12-15T14:52:07.214Z,-5.21
2022-12-15T14:54:49.903Z,-5.21
2022-12-15T14:57:09.472Z,-5.19
2022-12-15T14:59:34.160Z,-5.11
2022-12-15T15:02:16.435Z,-5.17
2022-12-15T15:03:16.358Z,-4.50
2022-12-15T15:04:32.081Z,-5.00
2022-12-15T15:06:40.414Z,-5.09
2022-12-15T15:08:49.749Z,-5.08
2022-12-15T15:10:57.995Z,-5.07
2022-12-15T15:13:00.904Z,-5.11
2022-12-15T15:15:06.220Z,-5.14
2022-12-15T15:17:17.130Z,-5.05
2022-12-15T15:19:22.952Z,-5.02
2022-12-15T15:21:28.643Z,-5.01
2022-12-15T15:23:39.902Z,-5.05
2022-12-15T15:25:56.933Z,-5.04
2022-12-15T15:28:27.468Z,-5.05
2022-12-15T15:30:30.646Z,-5.04
2022-12-15T15:32:32.743Z,-5.07
2022-12-15T15:34:39.708Z,-5.04
2022-12-15T15:36:41.787Z,-5.04
2022-12-15T15:38:54.664Z,-5.02
2022-12-15T15:41:01.119Z,-5.02
2022-12-15T15:43:14.452Z,-5.01
2022-12-15T15:45:16.524Z,-4.98
2022-12-15T15:47:47.417Z,-4.97
2022-12-15T15:49:56.056Z,-4.94
2022-12-15T15:51:59.117Z,-4.84
2022-12-15T15:54:25.335Z,-4.85
2022-12-15T15:56:37.537Z,-4.80
2022-12-15T15:58:50.861Z,-4.84
2022-12-15T16:00:58.993Z,-4.83
2022-12-15T16:03:03.166Z,-4.77
2022-12-15T16:05:21.240Z,-4.78
2022-12-15T16:07:29.348Z,-4.76
2022-12-15T16:09:37.485Z,-4.70
2022-12-15T16:11:41.548Z,-4.70
2022-12-15T16:13:51.533Z,-4.70
2022-12-15T16:15:55.616Z,-4.69
2022-12-15T16:17:58.229Z,-4.69
2022-12-15T16:20:22.324Z,-4.69
2022-12-15T16:22:24.947Z,-4.68
2022-12-15T16:24:28.028Z,-4.67
2022-12-15T16:26:33.564Z,-4.64
2022-12-15T16:28:36.915Z,-4.67
2022-12-15T16:30:43.768Z,-4.65
2022-12-15T16:32:47.882Z,-4.63
2022-12-15T16:34:51.765Z,-4.63
2022-12-15T16:36:58.172Z,-4.62
2022-12-15T16:39:10.862Z,-4.62
2022-12-15T16:41:23.740Z,-4.68
2022-12-15T16:43:47.762Z,-4.56
2022-12-15T16:46:00.460Z,-4.52
2022-12-15T16:48:03.817Z,-4.54
2022-12-15T16:50:20.770Z,-4.40
2022-12-15T16:52:34.795Z,-4.45
2022-12-15T16:54:51.374Z,-4.44
2022-12-15T16:57:01.478Z,-4.43
2022-12-15T16:59:31.555Z,-4.41
2022-12-15T17:01:26.822Z,-4.46
2022-12-15T17:03:33.622Z,-4.50
2022-12-15T17:05:40.872Z,-4.51
2022-12-15T17:07:56.345Z,-4.44
2022-12-15T17:10:07.362Z,-4.49
2022-12-15T17:12:19.170Z,-4.44
2022-12-15T17:14:22.141Z,-4.38
2022-12-15T17:16:27.365Z,-4.61
2022-12-15T17:18:30.757Z,-4.75
2022-12-15T17:20:33.561Z,-4.80
2022-12-15T17:22:35.727Z,-4.81
2022-12-15T17:24:53.106Z,-4.86
2022-12-15T17:27:01.399Z,-4.83
2022-12-15T17:29:13.572Z,-4.80
2022-12-15T17:31:21.801Z,-4.81
2022-12-15T17:33:34.230Z,-4.82
2022-12-15T17:35:49.758Z,-4.89
2022-12-15T17:37:58.302Z,-4.82
2022-12-15T17:40:00.846Z,-4.82
2022-12-15T17:42:21.677Z,-4.79
2022-12-15T17:44:40.140Z,-4.83
2022-12-15T17:46:45.876Z,-4.79
2022-12-15T17:48:49.407Z,-4.78
2022-12-15T17:51:14.579Z,-4.83
2022-12-15T17:53:31.196Z,-4.84
2022-12-15T17:55:37.219Z,-4.84
2022-12-15T17:57:40.269Z,-4.89
2022-12-15T17:59:50.584Z,-4.91
2022-12-15T18:01:57.906Z,-4.92
2022-12-15T18:04:05.557Z,-4.91
2022-12-15T18:06:15.859Z,-4.88
2022-12-15T18:08:28.462Z,-4.80
2022-12-15T18:10:41.408Z,-4.83
2022-12-15T18:12:44.402Z,-4.90
2022-12-15T18:14:48.045Z,-4.90
2022-12-15T18:16:56.936Z,-4.84
2022-12-15T18:19:02.461Z,-4.80
2022-12-15T18:21:14.648Z,-5.01
2022-12-15T18:23:27.152Z,-5.07
2022-12-15T18:25:32.615Z,-5.07
2022-12-15T18:27:51.124Z,-5.04
2022-12-15T18:29:57.219Z,-4.96
2022-12-15T18:32:00.008Z,-4.95
2022-12-15T18:34:22.248Z,-4.90
2022-12-15T18:36:25.003Z,-4.94
2022-12-15T18:38:31.330Z,-4.93
2022-12-15T18:40:40.842Z,-4.95
2022-12-15T18:42:45.480Z,-4.94
2022-12-15T18:44:53.684Z,-4.89
2022-12-15T18:47:11.608Z,-4.95
2022-12-15T18:49:39.747Z,-4.84
2022-12-15T18:51:42.877Z,-4.86
2022-12-15T18:53:54.673Z,-4.92
2022-12-15T18:55:58.089Z,-4.92
2022-12-15T18:58:23.070Z,-4.78
2022-12-15T19:00:30.695Z,-4.76
2022-12-15T19:02:36.742Z,-4.72
2022-12-15T19:04:39.291Z,-4.68
2022-12-15T19:06:43.661Z,-4.63
2022-12-15T19:08:47.044Z,-4.65
2022-12-15T19:10:58.821Z,-4.71
2022-12-15T19:13:13.768Z,-4.72
2022-12-15T19:15:20.539Z,-4.71
2022-12-15T19:17:43.267Z,-4.65
2022-12-15T19:20:06.772Z,-4.63
2022-12-15T19:22:32.360Z,-4.59
2022-12-15T19:24:56.570Z,-4.61
2022-12-15T19:27:12.921Z,-4.64
2022-12-15T19:29:21.618Z,-4.62
2022-12-15T19:31:30.366Z,-4.63
2022-12-15T19:33:33.823Z,-4.56
2022-12-15T19:35:47.090Z,-4.58
2022-12-15T19:37:51.305Z,-4.60
2022-12-15T19:39:55.790Z,-4.56
2022-12-15T19:42:17.635Z,-4.55
2022-12-15T19:44:26.620Z,-4.57
2022-12-15T19:46:35.584Z,-4.62
2022-12-15T19:48:39.363Z,-4.71
2022-12-15T19:50:44.910Z,-4.76
2022-12-15T19:53:02.770Z,-4.59
2022-12-15T19:55:26.327Z,-4.44
2022-12-15T19:57:28.952Z,-4.30
2022-12-15T19:59:46.032Z,-4.30
2022-12-15T20:01:52.361Z,-4.40
2022-12-15T20:04:13.307Z,-4.50
2022-12-15T20:06:26.888Z,-4.40
2022-12-15T20:08:37.546Z,-4.24
2022-12-15T20:10:54.201Z,-4.35
2022-12-15T20:13:06.211Z,-4.47
2022-12-15T20:15:28.469Z,-4.42
2022-12-15T20:17:32.618Z,-4.41
2022-12-15T20:19:35.745Z,-4.37
2022-12-15T20:21:43.522Z,-4.42
2022-12-15T20:23:56.668Z,-4.49
2022-12-15T20:26:01.968Z,-4.53
2022-12-15T20:28:25.160Z,-4.58
2022-12-15T20:30:43.230Z,-4.67
2022-12-15T20:32:47.921Z,-5.39
2022-12-15T20:34:57.196Z,-5.76
2022-12-15T20:37:05.564Z,-5.88
2022-12-15T20:39:26.137Z,-6.31
2022-12-15T20:41:33.518Z,-6.21
2022-12-15T20:43:37.058Z,-6.32
2022-12-15T20:45:46.979Z,-6.33
2022-12-15T20:47:58.534Z,-6.59
2022-12-15T20:50:07.822Z,-6.82
2022-12-15T20:52:20.106Z,-6.90
2022-12-15T20:54:25.896Z,-6.84
2022-12-15T20:56:42.812Z,-6.88
2022-12-15T20:58:46.568Z,-7.01
2022-12-15T21:00:51.855Z,-7.06
2022-12-15T21:02:55.290Z,-7.28
2022-12-15T21:05:00.664Z,-7.43
2022-12-15T21:07:11.460Z,-7.49
2022-12-15T21:09:16.590Z,-7.30
2022-12-15T21:11:33.412Z,-7.27
2022-12-15T21:13:51.223Z,-7.31
2022-12-15T21:15:57.185Z,-7.34
2022-12-15T21:18:40.602Z,-7.33
2022-12-15T21:20:29.178Z,-7.33
2022-12-15T21:22:34.224Z,-7.55
2022-12-15T21:24:37.410Z,-7.67
2022-12-15T21:26:47.247Z,-8.10
2022-12-15T21:29:02.812Z,-8.30
2022-12-15T21:31:13.063Z,-8.61
2022-12-15T21:33:18.015Z,-8.56
2022-12-15T21:35:22.366Z,-8.37
2022-12-15T21:37:31.037Z,-8.37
2022-12-15T21:39:37.435Z,-8.39
2022-12-15T21:42:08.340Z,-8.24
2022-12-15T21:44:14.253Z,-8.61
2022-12-15T21:46:29.016Z,-8.90
2022-12-15T21:48:55.506Z,-8.83
2022-12-15T21:51:14.779Z,-8.94
2022-12-15T21:53:17.837Z,-8.79
2022-12-15T21:55:29.400Z,-8.52
2022-12-15T21:57:32.259Z,-8.27
2022-12-15T21:59:35.263Z,-7.91
2022-12-15T22:01:38.427Z,-7.69
2022-12-15T22:03:45.175Z,-7.80
2022-12-15T22:05:48.067Z,-8.69
2022-12-15T22:07:52.497Z,-8.53
2022-12-15T22:09:56.404Z,-8.50
2022-12-15T22:11:58.473Z,-8.24
2022-12-15T22:14:15.317Z,-8.48
2022-12-15T22:16:25.078Z,-8.37
2022-12-15T22:18:27.123Z,-7.77
2022-12-15T22:20:33.013Z,-7.97
2022-12-15T22:22:51.789Z,-8.10
2022-12-15T22:24:54.791Z,-7.59
2022-12-15T22:26:57.746Z,-7.66
2022-12-15T22:29:03.269Z,-7.69
2022-12-15T22:31:05.343Z,-7.96
2022-12-15T22:33:22.122Z,-7.65
2022-12-15T22:35:26.836Z,-7.26
2022-12-15T22:37:29.793Z,-7.12
2022-12-15T22:39:32.124Z,-7.07
2022-12-15T22:41:36.055Z,-7.06
2022-12-15T22:43:41.814Z,-7.07
2022-12-15T22:45:43.704Z,-6.91
2022-12-15T22:47:47.499Z,-6.87
2022-12-15T22:49:49.448Z,-6.80
2022-12-15T22:51:51.448Z,-6.74
2022-12-15T22:53:53.359Z,-6.74
2022-12-15T22:55:57.051Z,-6.70
2022-12-15T22:58:03.273Z,-6.65
2022-12-15T23:00:09.807Z,-6.59
2022-12-15T23:02:12.284Z,-6.51
2022-12-15T23:04:14.619Z,-6.57
2022-12-15T23:06:16.476Z,-6.53
2022-12-15T23:08:18.411Z,-6.56
2022-12-15T23:10:39.572Z,-6.61
2022-12-15T23:12:41.746Z,-6.55
2022-12-15T23:15:04.842Z,-6.53
2022-12-15T23:17:07.295Z,-6.59
2022-12-15T23:19:24.020Z,-6.62
2022-12-15T23:21:26.800Z,-6.52
2022-12-15T23:23:32.423Z,-6.49
2022-12-15T23:25:34.860Z,-6.44
2022-12-15T23:27:36.868Z,-6.44
2022-12-15T23:29:38.759Z,-6.41
2022-12-15T23:31:41.631Z,-6.40
2022-12-15T23:33:43.797Z,-6.37
2022-12-15T23:35:46.672Z,-6.43
2022-12-15T23:37:48.546Z,-6.35
2022-12-15T23:39:50.418Z,-6.35
2022-12-15T23:41:53.674Z,-6.40
2022-12-15T23:43:55.803Z,-6.39
2022-12-15T23:46:06.299Z,-6.42
2022-12-15T23:48:09.886Z,-6.38
2022-12-15T23:50:12.039Z,-6.38
2022-12-15T23:52:15.083Z,-6.39
2022-12-15T23:54:17.014Z,-6.31
2022-12-15T23:56:24.402Z,-6.36
2022-12-15T23:58:26.228Z,-6.36
